Time;durP1;ratioP1;P1;durP2;ratioP2;P2;SDS_P1;SDS_P2;PMS_P1;PMS_P2;Temp;Humidity;BMP_temperature;BMP_pressure;BME280_temperature;BME280_humidity;BME280_pressure;Samples;Min_cycle;Max_cycle;Signal;HPM_P1;HPM_P2
2024/04/05 00:00:13;;;;;;;16.80;9.20;;;;;;;4.99;100.00;100222.52;109485;1250;66127;-53
2024/04/05 00:02:46;;;;;;;16.70;9.50;;;;;;;4.96;100.00;100224.15;109375;1251;72744;-53
2024/04/05 00:05:13;;;;;;;14.10;9.00;;;;;;;4.93;100.00;100230.15;109460;1251;59792;-54
2024/04/05 00:07:41;;;;;;;15.40;9.20;;;;;;;4.91;100.00;100230.73;109474;1250;60135;-53
2024/04/05 00:10:08;;;;;;;17.20;9.10;;;;;;;4.89;100.00;100240.88;109434;1250;74288;-54
2024/04/05 00:12:36;;;;;;;15.00;9.90;;;;;;;4.84;100.00;100243.21;109407;1249;66988;-53
2024/04/05 00:15:09;;;;;;;14.20;8.50;;;;;;;4.83;100.00;100242.65;109461;1250;70280;-53
2024/04/05 00:17:37;;;;;;;15.00;9.40;;;;;;;4.79;100.00;100248.55;109439;1250;59699;-54
2024/04/05 00:20:05;;;;;;;16.00;9.90;;;;;;;4.75;100.00;100248.27;109488;1250;60111;-53
2024/04/05 00:22:32;;;;;;;16.90;10.30;;;;;;;4.70;100.00;100244.04;109412;1250;75518;-57
2024/04/05 00:25:00;;;;;;;14.00;8.60;;;;;;;4.63;100.00;100240.71;109493;1249;67069;-54
2024/04/05 00:27:28;;;;;;;15.00;8.00;;;;;;;4.58;100.00;100240.23;109439;1250;72754;-53
2024/04/05 00:29:55;;;;;;;14.20;8.50;;;;;;;4.52;100.00;100244.06;109409;1249;59769;-53
2024/04/05 00:32:23;;;;;;;13.30;8.00;;;;;;;4.47;100.00;100245.54;109462;1251;59868;-57
2024/04/05 00:34:50;;;;;;;13.50;8.60;;;;;;;4.41;100.00;100244.20;109438;1250;75514;-53
2024/04/05 00:37:18;;;;;;;16.80;9.90;;;;;;;4.36;100.00;100249.59;109453;1251;65704;-53
2024/04/05 00:39:45;;;;;;;17.10;10.20;;;;;;;4.31;100.00;100251.50;109391;1251;72739;-53
2024/04/05 00:42:13;;;;;;;17.90;8.60;;;;;;;4.26;100.00;100253.98;109425;1251;60967;-53
2024/04/05 00:44:40;;;;;;;14.30;8.60;;;;;;;4.21;100.00;100255.02;109463;1249;59821;-53
2024/04/05 00:47:08;;;;;;;15.10;9.10;;;;;;;4.15;100.00;100254.52;109412;1251;76134;-53
2024/04/05 00:49:35;;;;;;;16.40;9.30;;;;;;;4.11;100.00;100256.47;109475;1250;66936;-54
2024/04/05 00:52:03;;;;;;;14.60;9.40;;;;;;;4.05;100.00;100252.03;109419;1251;72762;-54
2024/04/05 00:54:30;;;;;;;13.90;8.60;;;;;;;3.98;100.00;100251.75;109453;1249;59989;-55
2024/04/05 00:56:58;;;;;;;14.00;8.80;;;;;;;3.93;100.00;100257.03;109480;1250;60018;-53
2024/04/05 00:59:26;;;;;;;15.90;9.90;;;;;;;3.88;100.00;100261.61;109455;1252;76629;-53
2024/04/05 01:01:53;;;;;;;15.90;9.70;;;;;;;3.86;100.00;100263.48;109502;1251;66845;-53
2024/04/05 01:04:22;;;;;;;13.60;8.70;;;;;;;3.87;100.00;100266.18;109525;1253;72704;-53
2024/04/05 01:06:50;;;;;;;15.80;8.70;;;;;;;3.85;100.00;100268.94;109365;1249;61021;-53
2024/04/05 01:09:18;;;;;;;17.70;10.60;;;;;;;3.83;100.00;100273.63;109454;1249;60108;-53
2024/04/05 01:11:55;;;;;;;15.70;9.80;;;;;;;3.80;100.00;100272.70;109419;1251;74235;-53
2024/04/05 01:14:23;;;;;;;16.00;10.30;;;;;;;3.76;100.00;100273.04;109446;1251;67069;-53
2024/04/05 01:16:51;;;;;;;15.60;9.80;;;;;;;3.76;100.00;100274.95;109493;1250;72757;-57
2024/04/05 01:19:19;;;;;;;15.40;9.50;;;;;;;3.75;100.00;100274.71;109413;1254;59704;-53
2024/04/05 01:21:49;;;;;;;14.70;9.00;;;;;;;3.72;100.00;100276.81;109405;1250;60424;-53
2024/04/05 01:24:16;;;;;;;17.30;9.70;;;;;;;3.69;100.00;100273.21;109417;1251;75444;-54
2024/04/05 01:26:44;;;;;;;14.30;8.30;;;;;;;3.69;100.00;100275.58;109474;1249;65689;-60
2024/04/05 01:29:11;;;;;;;12.80;8.30;;;;;;;3.68;100.00;100279.65;109393;1249;73541;-54
2024/04/05 01:31:38;;;;;;;14.40;8.50;;;;;;;3.65;100.00;100277.66;109461;1249;60096;-54
2024/04/05 01:34:06;;;;;;;14.10;8.60;;;;;;;3.61;100.00;100276.96;109462;1250;60145;-53
2024/04/05 01:36:33;;;;;;;16.70;8.00;;;;;;;3.58;100.00;100276.04;109512;1249;74184;-54
2024/04/05 01:39:01;;;;;;;16.60;10.00;;;;;;;3.58;100.00;100272.98;109419;1250;66945;-54
2024/04/05 01:41:28;;;;;;;14.90;9.50;;;;;;;3.57;100.00;100271.33;109444;1252;72530;-52
2024/04/05 01:43:56;;;;;;;18.30;8.90;;;;;;;3.58;100.00;100267.48;109458;1251;59731;-52
2024/04/05 01:46:23;;;;;;;11.50;7.40;;;;;;;3.58;100.00;100270.15;109522;1249;60316;-53
2024/04/05 01:48:51;;;;;;;12.50;7.60;;;;;;;3.60;100.00;100270.84;109441;1249;74676;-53
2024/04/05 01:51:18;;;;;;;11.50;6.80;;;;;;;3.63;100.00;100272.42;109479;1250;66598;-53
2024/04/05 01:53:45;;;;;;;11.70;6.80;;;;;;;3.69;100.00;100272.69;109438;1250;72783;-53
2024/04/05 01:56:13;;;;;;;10.90;6.40;;;;;;;3.74;100.00;100276.32;109422;1250;59758;-53
2024/04/05 01:58:40;;;;;;;10.70;6.30;;;;;;;3.79;100.00;100276.70;109537;1249;60115;-53
2024/04/05 02:01:08;;;;;;;9.20;5.70;;;;;;;3.84;100.00;100277.63;109276;1250;75507;-54
2024/04/05 02:03:35;;;;;;;9.10;5.30;;;;;;;3.93;100.00;100275.95;109448;1250;67147;-54
2024/04/05 02:06:11;;;;;;;8.30;5.60;;;;;;;4.01;100.00;100280.90;109462;1250;72721;-53
2024/04/05 02:08:39;;;;;;;8.40;5.50;;;;;;;4.07;100.00;100279.38;109443;1250;59727;-54
2024/04/05 02:11:06;;;;;;;8.80;5.40;;;;;;;4.12;100.00;100278.16;109435;1249;59714;-58
2024/04/05 02:13:34;;;;;;;7.80;4.60;;;;;;;4.20;100.00;100278.73;109499;1250;75524;-54
2024/04/05 02:16:01;;;;;;;8.00;4.50;;;;;;;4.25;100.00;100282.55;109422;1250;64605;-53
2024/04/05 02:18:29;;;;;;;8.00;4.80;;;;;;;4.30;100.00;100282.67;109493;1250;72789;-53
2024/04/05 02:20:56;;;;;;;10.00;4.20;;;;;;;4.35;100.00;100285.36;109430;1250;59937;-54
2024/04/05 02:23:24;;;;;;;6.50;3.50;;;;;;;4.39;100.00;100281.20;109510;1250;60455;-53
2024/04/05 02:25:51;;;;;;;7.40;3.90;;;;;;;4.42;100.00;100281.77;109461;1249;75507;-53
2024/04/05 02:28:19;;;;;;;8.00;4.30;;;;;;;4.46;100.00;100281.37;109466;1250;66887;-53
2024/04/05 02:30:46;;;;;;;7.00;4.50;;;;;;;4.49;100.00;100280.81;109465;1250;72797;-53
2024/04/05 02:33:14;;;;;;;6.80;4.40;;;;;;;4.50;100.00;100282.40;109420;1250;61383;-53
2024/04/05 02:35:41;;;;;;;8.70;5.00;;;;;;;4.51;100.00;100281.65;109479;1249;60055;-54
2024/04/05 02:38:09;;;;;;;7.60;5.00;;;;;;;4.52;100.00;100281.54;109480;1250;74195;-53
2024/04/05 02:40:36;;;;;;;8.50;4.70;;;;;;;4.54;100.00;100282.41;109501;1250;66958;-53
2024/04/05 02:43:03;;;;;;;8.60;4.70;;;;;;;4.56;100.00;100282.23;109469;1250;72680;-58
2024/04/05 02:45:31;;;;;;;9.20;4.60;;;;;;;4.57;100.00;100280.02;109432;1250;60065;-53
2024/04/05 02:47:58;;;;;;;7.40;4.70;;;;;;;4.58;100.00;100282.16;109502;1250;60123;-53
2024/04/05 02:50:26;;;;;;;8.20;5.10;;;;;;;4.59;100.00;100284.70;109450;1250;75577;-52
2024/04/05 02:52:53;;;;;;;9.50;5.50;;;;;;;4.61;100.00;100288.42;109487;1250;65781;-54
2024/04/05 02:55:20;;;;;;;12.90;5.60;;;;;;;4.63;100.00;100287.55;109412;1249;71218;-53
2024/04/05 02:57:48;;;;;;;8.80;5.10;;;;;;;4.64;100.00;100293.98;109461;1250;60265;-52
2024/04/05 03:00:15;;;;;;;9.20;4.90;;;;;;;4.66;100.00;100299.33;109488;1252;59698;-53
2024/04/05 03:02:43;;;;;;;8.40;5.50;;;;;;;4.68;100.00;100300.95;109548;1250;74304;-55
2024/04/05 03:05:12;;;;;;;8.70;5.00;;;;;;;4.71;100.00;100302.15;109460;1250;66934;-58
2024/04/05 03:07:39;;;;;;;10.30;5.50;;;;;;;4.80;100.00;100304.03;109429;1251;71451;-55
2024/04/05 03:10:07;;;;;;;8.70;5.20;;;;;;;4.92;100.00;100306.17;109353;1250;60196;-56
2024/04/05 03:12:34;;;;;;;7.60;5.20;;;;;;;5.08;100.00;100305.30;109480;1250;59988;-53
2024/04/05 03:15:01;;;;;;;7.50;5.10;;;;;;;5.31;100.00;100306.40;109438;1251;75453;-53
2024/04/05 03:17:29;;;;;;;9.10;5.50;;;;;;;5.58;100.00;100308.25;109394;1251;67897;-52
2024/04/05 03:19:56;;;;;;;8.50;5.10;;;;;;;5.88;100.00;100307.77;109429;1251;71714;-55
2024/04/05 03:22:24;;;;;;;9.60;5.20;;;;;;;6.16;100.00;100300.23;109514;1251;60132;-55
2024/04/05 03:24:51;;;;;;;7.70;4.90;;;;;;;6.23;100.00;100294.48;109444;1251;60232;-53
2024/04/05 03:27:19;;;;;;;7.70;4.60;;;;;;;6.16;100.00;100290.85;109453;1250;75543;-59
2024/04/05 03:29:46;;;;;;;8.70;5.00;;;;;;;6.04;100.00;100294.50;109447;1251;66727;-53
2024/04/05 03:32:14;;;;;;;8.40;4.80;;;;;;;5.93;100.00;100298.30;109423;1251;72743;-52
2024/04/05 03:34:41;;;;;;;9.40;6.10;;;;;;;5.82;100.00;100295.05;109443;1250;60090;-52
2024/04/05 03:37:09;;;;;;;7.80;5.10;;;;;;;5.74;100.00;100299.96;109394;1251;60085;-53
2024/04/05 03:39:36;;;;;;;8.40;5.10;;;;;;;5.71;100.00;100302.59;109399;1250;75516;-58
2024/04/05 03:42:04;;;;;;;8.50;4.30;;;;;;;5.68;100.00;100301.11;109423;1251;67072;-53
2024/04/05 03:44:32;;;;;;;8.60;5.40;;;;;;;5.66;100.00;100307.34;109474;1251;72773;-53
2024/04/05 03:47:00;;;;;;;8.00;5.20;;;;;;;5.64;100.00;100305.83;109401;1251;59781;-53
2024/04/05 03:49:30;;;;;;;8.50;4.60;;;;;;;5.66;100.00;100307.08;109518;1251;60163;-53
2024/04/05 03:51:57;;;;;;;8.30;5.10;;;;;;;5.69;100.00;100311.43;109366;1251;74243;-53
2024/04/05 03:54:25;;;;;;;8.20;5.30;;;;;;;5.75;100.00;100313.84;109451;1251;67061;-54
2024/04/05 03:56:52;;;;;;;8.40;5.50;;;;;;;5.79;100.00;100315.00;109437;1251;71432;-53
2024/04/05 03:59:20;;;;;;;8.50;4.80;;;;;;;5.83;100.00;100318.73;109417;1250;60948;-53
2024/04/05 04:01:52;;;;;;;16.60;5.40;;;;;;;5.91;100.00;100324.25;109422;1250;59700;-53
2024/04/05 04:04:20;;;;;;;7.50;4.70;;;;;;;5.99;100.00;100329.27;109427;1250;74277;-53
2024/04/05 04:06:47;;;;;;;8.30;4.90;;;;;;;6.09;100.00;100331.25;109404;1250;65658;-53
2024/04/05 04:09:15;;;;;;;7.70;4.40;;;;;;;6.27;100.00;100333.63;109377;1252;72747;-53
2024/04/05 04:11:42;;;;;;;7.20;4.50;;;;;;;6.51;100.00;100333.42;109423;1252;59779;-54
2024/04/05 04:14:13;;;;;;;7.90;4.20;;;;;;;6.83;100.00;100337.58;109355;1252;59677;-53
2024/04/05 04:16:41;;;;;;;7.60;4.40;;;;;;;7.24;100.00;100337.40;109470;1252;75640;-53
2024/04/05 04:19:11;;;;;;;5.50;3.40;;;;;;;7.68;100.00;100333.43;109422;1252;67129;-53
2024/04/05 04:21:38;;;;;;;7.80;4.60;;;;;;;8.19;100.00;100328.88;109416;1252;72732;-54
2024/04/05 04:24:06;;;;;;;7.50;4.00;;;;;;;8.77;100.00;100328.59;109368;1252;60504;-54
2024/04/05 04:26:33;;;;;;;7.50;4.10;;;;;;;9.58;100.00;100327.83;109411;1252;59961;-53
2024/04/05 04:29:00;;;;;;;6.00;4.50;;;;;;;10.59;100.00;100320.44;109450;1252;74763;-54
2024/04/05 04:31:28;;;;;;;7.30;3.70;;;;;;;11.59;100.00;100317.27;109403;1252;65833;-54
2024/04/05 04:33:55;;;;;;;10.00;3.60;;;;;;;12.27;100.00;100310.77;109354;1252;72721;-58
2024/04/05 04:36:23;;;;;;;6.40;3.70;;;;;;;12.74;100.00;100312.71;109373;1252;60808;-54
2024/04/05 04:38:51;;;;;;;6.20;3.30;;;;;;;12.95;100.00;100311.63;109459;1252;59799;-53
2024/04/05 04:41:21;;;;;;;6.30;3.50;;;;;;;13.08;100.00;100308.94;109448;1252;74225;-54
2024/04/05 04:43:48;;;;;;;5.40;3.50;;;;;;;13.04;100.00;100306.42;109355;1253;67026;-55
2024/04/05 04:46:16;;;;;;;5.90;3.90;;;;;;;12.92;100.00;100313.16;109364;1252;73143;-55
2024/04/05 04:48:43;;;;;;;5.80;3.60;;;;;;;12.71;100.00;100309.79;109416;1253;59996;-55
2024/04/05 04:51:11;;;;;;;5.40;3.40;;;;;;;12.55;100.00;100311.89;109426;1252;60287;-54
2024/04/05 04:53:38;;;;;;;7.00;3.90;;;;;;;12.37;100.00;100313.70;109414;1252;74630;-54
2024/04/05 04:56:06;;;;;;;13.40;3.90;;;;;;;12.24;100.00;100315.70;109437;1252;67104;-54
2024/04/05 04:58:34;;;;;;;5.70;3.10;;;;;;;12.14;100.00;100318.41;109387;1252;72039;-53
2024/04/05 05:01:01;;;;;;;6.10;3.50;;;;;;;12.11;100.00;100321.92;109386;1252;60119;-53
2024/04/05 05:03:29;;;;;;;5.10;2.80;;;;;;;12.15;100.00;100325.71;109458;1252;60238;-53
2024/04/05 05:05:59;;;;;;;5.60;2.90;;;;;;;12.22;100.00;100326.39;109417;1252;74579;-55
2024/04/05 05:08:28;;;;;;;5.50;2.70;;;;;;;12.29;100.00;100324.52;109459;1251;66894;-54
2024/04/05 05:10:55;;;;;;;3.90;2.20;;;;;;;12.50;100.00;100324.17;109413;1251;71373;-54
2024/04/05 05:13:23;;;;;;;8.20;2.40;;;;;;;12.84;100.00;100325.23;109411;1251;60286;-54
2024/04/05 05:15:51;;;;;;;5.60;2.30;;;;;;;13.18;96.29;100324.84;109448;1251;60055;-54
2024/04/05 05:18:18;;;;;;;4.20;1.80;;;;;;;13.40;89.15;100327.86;109428;1251;75977;-58
2024/04/05 05:20:54;;;;;;;3.30;1.80;;;;;;;13.59;86.25;100332.80;109391;1251;66127;-54
2024/04/05 05:23:22;;;;;;;5.00;1.90;;;;;;;14.01;79.11;100331.70;109444;1251;71397;-54
2024/04/05 05:25:49;;;;;;;3.30;1.80;;;;;;;14.46;73.00;100328.42;109435;1252;60292;-58
2024/04/05 05:28:17;;;;;;;3.40;1.80;;;;;;;14.93;68.64;100327.14;109418;1251;60106;-54
2024/04/05 05:30:45;;;;;;;3.80;2.00;;;;;;;15.29;62.84;100322.70;109440;1251;74551;-54
2024/04/05 05:33:12;;;;;;;6.40;1.80;;;;;;;15.35;58.07;100326.20;109457;1251;67428;-54
2024/04/05 05:35:40;;;;;;;3.90;1.70;;;;;;;15.18;56.76;100325.88;109420;1251;71825;-53
2024/04/05 05:38:07;;;;;;;3.10;2.20;;;;;;;14.93;56.92;100331.86;109387;1251;60284;-56
2024/04/05 05:40:35;;;;;;;4.10;2.20;;;;;;;14.77;58.60;100335.84;109425;1251;60630;-54
2024/04/05 05:43:02;;;;;;;3.10;1.70;;;;;;;14.68;58.59;100334.80;109457;1250;77474;-55
2024/04/05 05:45:30;;;;;;;4.70;1.80;;;;;;;14.40;58.89;100339.10;109486;1251;65792;-55
2024/04/05 05:47:57;;;;;;;3.90;2.00;;;;;;;14.13;60.18;100343.02;109479;1251;72741;-54
2024/04/05 05:50:25;;;;;;;3.50;2.10;;;;;;;13.86;62.01;100347.59;109410;1251;59719;-55
2024/04/05 05:52:52;;;;;;;4.10;2.20;;;;;;;13.76;62.81;100346.67;109424;1251;60332;-54
2024/04/05 05:55:22;;;;;;;4.50;2.40;;;;;;;13.55;63.50;100350.23;109437;1251;75544;-55
2024/04/05 05:57:49;;;;;;;3.20;1.90;;;;;;;13.43;68.15;100348.58;109428;1251;65654;-56
2024/04/05 06:00:17;;;;;;;5.60;2.00;;;;;;;13.61;71.32;100350.33;109413;1251;71519;-61
2024/04/05 06:02:44;;;;;;;3.60;1.70;;;;;;;13.94;70.66;100354.93;109441;1251;61041;-55
2024/04/05 06:05:12;;;;;;;6.80;2.20;;;;;;;14.32;67.19;100351.90;109444;1251;60924;-54
2024/04/05 06:07:40;;;;;;;3.90;1.40;;;;;;;14.56;63.55;100351.30;109444;1250;78002;-54
2024/04/05 06:10:07;;;;;;;4.00;1.80;;;;;;;14.84;62.00;100355.84;109478;1251;67041;-54
2024/04/05 06:12:38;;;;;;;3.70;2.30;;;;;;;15.18;58.89;100352.63;109375;1251;74066;-55
2024/04/05 06:15:07;;;;;;;4.70;2.00;;;;;;;15.47;57.87;100358.16;109423;1251;61172;-54
2024/04/05 06:17:37;;;;;;;3.20;1.80;;;;;;;16.02;56.26;100355.35;109448;1251;62137;-55
2024/04/05 06:20:06;;;;;;;4.50;2.30;;;;;;;16.62;50.91;100356.80;109471;1250;77986;-55
2024/04/05 06:22:34;;;;;;;5.60;1.90;;;;;;;16.98;48.43;100354.98;109386;1250;67692;-58
2024/04/05 06:25:02;;;;;;;4.10;2.40;;;;;;;17.33;47.98;100356.20;109445;1253;74666;-55
2024/04/05 06:27:29;;;;;;;4.50;2.60;;;;;;;17.78;45.57;100360.29;109464;1251;60146;-54
2024/04/05 06:29:57;;;;;;;4.20;2.70;;;;;;;18.11;43.63;100361.00;109399;1251;61500;-54
2024/04/05 06:32:25;;;;;;;4.30;2.30;;;;;;;18.07;42.27;100365.61;109431;1251;76888;-54
2024/04/05 06:34:52;;;;;;;3.70;2.00;;;;;;;18.04;42.66;100362.17;109434;1251;69398;-55
2024/04/05 06:37:20;;;;;;;3.70;2.40;;;;;;;18.44;42.52;100363.34;109451;1251;75531;-54
2024/04/05 06:39:54;;;;;;;4.20;2.20;;;;;;;19.05;41.76;100365.37;109407;1251;62248;-55
2024/04/05 06:42:23;;;;;;;3.10;2.10;;;;;;;19.60;39.59;100363.17;109430;1251;60233;-55
2024/04/05 06:44:52;;;;;;;3.70;2.30;;;;;;;19.80;38.36;100364.92;109334;1251;78205;-54
2024/04/05 06:47:20;;;;;;;6.20;2.30;;;;;;;20.07;38.37;100364.42;109416;1251;68021;-55
2024/04/05 06:49:47;;;;;;;3.70;2.40;;;;;;;20.43;37.32;100367.05;109442;1251;73713;-55
2024/04/05 06:52:15;;;;;;;4.10;2.20;;;;;;;20.69;36.57;100366.70;109416;1251;61500;-55
2024/04/05 06:54:43;;;;;;;3.40;2.50;;;;;;;20.93;35.36;100364.42;109400;1250;61499;-55
2024/04/05 06:57:11;;;;;;;3.00;2.20;;;;;;;21.02;34.62;100363.55;109443;1250;77035;-54
2024/04/05 06:59:38;;;;;;;3.60;2.20;;;;;;;21.07;34.39;100367.86;109451;1251;69971;-54
2024/04/05 07:02:06;;;;;;;4.90;2.50;;;;;;;20.98;33.87;100368.94;109455;1251;75192;-54
2024/04/05 07:04:37;;;;;;;3.40;2.50;;;;;;;20.74;34.24;100364.64;109376;1251;62862;-55
2024/04/05 07:07:05;;;;;;;3.30;2.00;;;;;;;20.67;34.47;100368.59;109448;1250;62864;-55
2024/04/05 07:09:33;;;;;;;4.90;2.10;;;;;;;20.82;34.21;100359.33;109507;1250;78275;-55
2024/04/05 07:12:04;;;;;;;3.50;2.10;;;;;;;20.88;33.55;100361.89;109509;1250;68934;-59
2024/04/05 07:14:32;;;;;;;2.80;2.00;;;;;;;20.81;33.32;100363.66;109446;1250;74853;-54
2024/04/05 07:16:59;;;;;;;3.70;2.50;;;;;;;20.51;33.04;100365.93;109441;1250;62117;-55
2024/04/05 07:19:27;;;;;;;5.40;2.20;;;;;;;19.89;33.66;100371.52;109507;1250;61847;-55
2024/04/05 07:21:55;;;;;;;3.40;2.20;;;;;;;19.26;34.64;100374.36;109464;1250;74340;-56
2024/04/05 07:24:23;;;;;;;4.00;2.20;;;;;;;18.89;35.76;100379.44;109417;1249;69119;-54
2024/04/05 07:26:51;;;;;;;2.80;1.90;;;;;;;18.73;36.11;100380.17;109504;1249;75241;-54
2024/04/05 07:29:19;;;;;;;3.00;1.90;;;;;;;18.65;36.25;100384.55;109495;1250;60267;-55
2024/04/05 07:31:50;;;;;;;3.70;2.00;;;;;;;18.73;36.55;100387.19;109492;1249;60746;-54
2024/04/05 07:34:17;;;;;;;3.20;2.10;;;;;;;18.85;36.29;100385.13;109461;1249;76452;-55
2024/04/05 07:36:45;;;;;;;3.00;1.50;;;;;;;18.90;36.56;100387.86;109441;1250;69105;-54
2024/04/05 07:39:12;;;;;;;3.30;2.10;;;;;;;19.26;36.50;100387.05;109475;1251;74831;-55
2024/04/05 07:41:40;;;;;;;3.00;2.00;;;;;;;19.83;35.89;100376.66;109496;1249;62319;-55
2024/04/05 07:44:08;;;;;;;2.60;1.50;;;;;;;20.42;34.51;100379.02;109485;1249;61501;-54
2024/04/05 07:46:35;;;;;;;3.30;1.50;;;;;;;20.80;32.81;100376.30;109452;1250;77996;-55
2024/04/05 07:49:03;;;;;;;3.10;1.40;;;;;;;20.95;32.47;100374.27;109520;1250;69227;-55
2024/04/05 07:51:31;;;;;;;2.20;1.30;;;;;;;21.14;31.66;100376.36;109395;1250;74735;-55
2024/04/05 07:53:58;;;;;;;4.40;1.30;;;;;;;21.08;31.02;100370.21;109421;1250;62554;-55
2024/04/05 07:56:27;;;;;;;2.00;1.30;;;;;;;20.81;31.30;100381.40;109479;1250;61505;-55
2024/04/05 07:58:54;;;;;;;1.70;1.10;;;;;;;20.63;31.50;100387.92;109463;1250;77339;-59
2024/04/05 08:01:23;;;;;;;5.00;3.20;;;;;;;20.58;31.10;100390.57;109476;1250;70032;-54
2024/04/05 08:03:51;;;;;;;3.50;2.00;;;;;;;20.38;31.28;100389.68;109473;1252;74148;-55
2024/04/05 08:06:19;;;;;;;12.00;9.20;;;;;;;20.22;30.95;100383.47;109438;1250;61525;-54
2024/04/05 08:08:47;;;;;;;8.10;5.20;;;;;;;19.99;30.90;100385.00;109464;1250;60231;-58
2024/04/05 08:11:15;;;;;;;513.20;382.50;;;;;;;19.91;30.94;100385.15;109444;1250;78322;-54
2024/04/05 08:13:43;;;;;;;97.80;61.00;;;;;;;19.79;31.26;100388.66;109530;1249;68790;-55
2024/04/05 08:16:10;;;;;;;12.00;8.00;;;;;;;19.67;31.55;100390.54;109457;1250;73174;-54
2024/04/05 08:18:38;;;;;;;4.00;2.10;;;;;;;19.47;31.57;100394.36;109471;1250;62188;-54
2024/04/05 08:21:06;;;;;;;11.40;6.20;;;;;;;19.07;32.03;100395.58;109445;1249;61471;-58
2024/04/05 08:23:33;;;;;;;8.80;4.90;;;;;;;18.54;32.68;100396.83;109475;1250;78029;-54
2024/04/05 08:26:01;;;;;;;16.60;11.80;;;;;;;17.83;33.52;100404.77;109506;1250;69634;-54
2024/04/05 08:28:29;;;;;;;4.40;3.00;;;;;;;17.14;34.76;100404.23;109477;1253;74612;-54
2024/04/05 08:30:57;;;;;;;3.40;1.90;;;;;;;16.73;36.08;100409.09;109514;1250;62579;-58
2024/04/05 08:33:28;;;;;;;5.10;1.40;;;;;;;16.44;37.22;100411.65;109450;1250;62232;-53
2024/04/05 08:35:55;;;;;;;34.90;29.50;;;;;;;16.18;38.12;100415.33;109470;1250;77689;-54
2024/04/05 08:38:23;;;;;;;25.20;15.70;;;;;;;15.97;38.94;100415.30;109496;1250;67716;-54
2024/04/05 08:40:51;;;;;;;15.00;7.50;;;;;;;15.84;39.48;100413.98;109446;1250;74395;-58
2024/04/05 08:43:19;;;;;;;5.10;2.10;;;;;;;15.69;39.94;100421.61;109406;1250;62668;-54
2024/04/05 08:45:49;;;;;;;7.70;2.40;;;;;;;15.49;40.77;100430.30;109305;1249;62736;-54
2024/04/05 08:48:17;;;;;;;5.30;2.30;;;;;;;15.31;41.29;100429.02;109490;1250;78072;-54
2024/04/05 08:50:44;;;;;;;7.40;4.40;;;;;;;15.22;41.99;100428.17;109387;1250;69477;-54
2024/04/05 08:53:12;;;;;;;6.90;4.10;;;;;;;15.16;42.44;100427.84;109498;1250;73604;-54
2024/04/05 08:55:43;;;;;;;4.50;2.40;;;;;;;15.15;42.85;100426.19;109478;1249;60674;-55
2024/04/05 08:58:13;;;;;;;7.40;4.10;;;;;;;15.26;43.24;100429.37;109447;1250;62135;-57
2024/04/05 09:00:40;;;;;;;8.10;4.80;;;;;;;15.37;42.68;100430.94;109412;1250;77991;-53
2024/04/05 09:03:10;;;;;;;57.60;33.70;;;;;;;15.34;42.75;100431.64;109381;1250;68860;-53
2024/04/05 09:05:37;;;;;;;235.50;143.20;;;;;;;15.23;42.84;100434.24;109437;1250;74367;-54
2024/04/05 09:08:06;;;;;;;203.80;120.70;;;;;;;15.07;43.07;100433.98;109446;1251;61081;-56
2024/04/05 09:10:33;;;;;;;66.90;39.80;;;;;;;14.91;43.86;100436.17;109494;1251;60927;-54
2024/04/05 09:13:04;;;;;;;19.70;10.00;;;;;;;14.90;44.01;100435.58;109486;1251;77575;-56
2024/04/05 09:15:32;;;;;;;8.30;2.90;;;;;;;14.93;43.85;100431.86;109513;1251;68504;-55
2024/04/05 09:18:00;;;;;;;4.10;2.10;;;;;;;14.90;43.68;100434.11;109516;1251;74128;-54
2024/04/05 09:20:30;;;;;;;6.30;3.40;;;;;;;14.84;43.72;100432.06;109422;1251;61690;-53
2024/04/05 09:23:01;;;;;;;84.60;45.90;;;;;;;14.87;43.92;100431.05;109465;1251;61493;-57
2024/04/05 09:25:30;;;;;;;21.80;12.00;;;;;;;14.84;44.21;100435.10;109405;1250;78321;-53
2024/04/05 09:28:12;;;;;;;27.30;16.40;;;;;;;14.79;44.56;100438.80;109492;1251;68707;-56
2024/04/05 09:30:40;;;;;;;42.40;26.20;;;;;;;14.82;44.98;100434.54;109406;1251;74194;-58
2024/04/05 09:33:08;;;;;;;17.30;10.60;;;;;;;14.87;44.91;100439.30;109465;1251;62364;-53
2024/04/05 09:35:39;;;;;;;41.10;23.70;;;;;;;14.85;44.81;100437.64;109442;1251;61480;-55
2024/04/05 09:38:06;;;;;;;180.70;95.50;;;;;;;14.86;45.03;100436.42;109493;1251;76903;-53
2024/04/05 09:40:35;;;;;;;11.50;7.00;;;;;;;14.77;45.20;100440.77;109253;1251;67838;-53
2024/04/05 09:43:04;;;;;;;21.30;9.20;;;;;;;14.73;45.48;100438.71;109441;1253;75279;-56
2024/04/05 09:45:32;;;;;;;71.90;36.70;;;;;;;14.75;45.62;100438.64;109315;1252;61435;-53
2024/04/05 09:48:02;;;;;;;58.40;28.10;;;;;;;14.64;45.52;100439.34;109422;1251;61089;-54
2024/04/05 09:50:30;;;;;;;23.00;12.70;;;;;;;14.57;46.04;100441.34;109487;1251;76967;-54
2024/04/05 09:53:01;;;;;;;5.00;2.70;;;;;;;14.63;46.19;100443.55;109486;1251;68622;-55
2024/04/05 09:55:29;;;;;;;5.20;1.90;;;;;;;14.72;46.04;100447.29;109274;1252;74687;-53
2024/04/05 09:57:56;;;;;;;26.50;10.90;;;;;;;14.81;45.81;100451.17;109444;1251;61624;-54
2024/04/05 10:00:24;;;;;;;27.90;14.40;;;;;;;14.86;45.86;100450.80;109423;1257;61715;-54
2024/04/05 10:02:57;;;;;;;51.00;29.80;;;;;;;14.77;45.76;100455.75;109480;1251;76335;-53
2024/04/05 10:05:24;;;;;;;56.30;30.90;;;;;;;14.65;45.94;100458.23;109465;1251;69257;-53
2024/04/05 10:07:53;;;;;;;9.20;5.00;;;;;;;14.61;46.16;100459.52;109464;1251;72708;-53
2024/04/05 10:10:33;;;;;;;14.10;7.90;;;;;;;14.66;46.27;100461.19;109513;1252;62415;-55
2024/04/05 10:13:14;;;;;;;23.40;12.40;;;;;;;14.73;46.02;100460.73;109450;1251;61451;-53
2024/04/05 10:15:58;;;;;;;38.00;19.50;;;;;;;14.75;45.72;100457.90;109507;1251;77382;-53
2024/04/05 10:18:27;;;;;;;13.60;5.20;;;;;;;14.76;45.76;100459.42;109483;1253;66914;-54
2024/04/05 10:21:07;;;;;;;12.20;4.20;;;;;;;14.82;45.52;100458.33;109490;1252;75516;-54
2024/04/05 10:23:35;;;;;;;3.70;1.80;;;;;;;14.94;45.39;100458.86;109475;1252;61141;-55
2024/04/05 10:26:03;;;;;;;9.50;4.10;;;;;;;15.07;44.91;100460.23;109452;1250;62519;-54
2024/04/05 10:28:32;;;;;;;43.20;29.10;;;;;;;15.23;44.77;100462.96;109523;1250;78051;-54
2024/04/05 10:31:02;;;;;;;24.10;11.30;;;;;;;15.41;44.55;100463.15;109503;1250;69533;-55
2024/04/05 10:33:30;;;;;;;10.50;4.80;;;;;;;15.52;43.58;100465.93;109475;1251;73928;-54
2024/04/05 10:36:01;;;;;;;15.10;9.80;;;;;;;15.59;43.10;100467.31;109485;1251;62493;-58
2024/04/05 10:38:29;;;;;;;10.00;3.40;;;;;;;15.56;42.85;100468.98;109492;1251;60755;-54
2024/04/05 10:41:09;;;;;;;32.90;19.30;;;;;;;15.54;43.06;100471.41;109469;1250;76093;-54
2024/04/05 10:43:39;;;;;;;17.20;10.90;;;;;;;15.63;43.15;100473.25;109519;1251;69476;-54
2024/04/05 10:46:07;;;;;;;7.70;3.60;;;;;;;15.74;42.36;100469.03;109452;1250;73555;-54
2024/04/05 10:48:34;;;;;;;15.10;6.80;;;;;;;15.76;41.95;100473.27;109463;1250;62636;-53
2024/04/05 10:51:04;;;;;;;6.70;2.40;;;;;;;15.78;41.86;100478.33;109553;1250;61414;-54
2024/04/05 10:53:31;;;;;;;6.30;1.70;;;;;;;15.91;41.80;100473.11;109464;1250;77543;-54
2024/04/05 10:56:01;;;;;;;9.00;4.00;;;;;;;16.20;41.70;100476.16;109470;1251;67454;-58
2024/04/05 10:58:29;;;;;;;6.50;2.40;;;;;;;16.53;40.63;100473.01;109491;1252;73291;-54
2024/04/05 11:00:56;;;;;;;3.20;1.20;;;;;;;16.67;39.77;100472.27;109550;1250;61543;-59
2024/04/05 11:03:24;;;;;;;4.70;1.20;;;;;;;16.73;39.63;100470.31;109467;1251;61940;-55
2024/04/05 11:05:51;;;;;;;7.40;3.10;;;;;;;17.00;39.51;100464.21;109420;1250;77035;-54
2024/04/05 11:08:22;;;;;;;40.20;31.10;;;;;;;17.40;39.19;100462.68;109205;1251;69747;-54
2024/04/05 11:10:49;;;;;;;10.90;7.90;;;;;;;17.74;38.44;100458.63;109485;1250;74605;-55
2024/04/05 11:13:18;;;;;;;3.90;2.20;;;;;;;17.98;38.23;100459.46;109400;1250;62593;-56
2024/04/05 11:15:46;;;;;;;3.90;1.40;;;;;;;18.21;37.24;100461.80;109270;1253;259199;-57